| time (UTC) | temp F | wind direction | speed knots | gust knots | rain 1hr in | rain 24hr in | rain mn in | humidity % | barometer mb |
| 20260506104847 | 54 | 166 | 0.9 | 1.7 | 0.00 | 0.00 | 0.00 | 87 | 1019.5 |
| 20260506104344 | 54 | 13 | 0.0 | 2.6 | 0.00 | 0.00 | 0.00 | 86 | 1019.4 |
| 20260506103842 | 55 | 175 | 1.7 | 1.7 | 0.00 | 0.00 | 0.00 | 86 | 1019.3 |
| 20260506103339 | 55 | 191 | 0.0 | 1.7 | 0.00 | 0.00 | 0.00 | 86 | 1019.4 |
| 20260506102836 | 55 | 169 | 0.9 | 1.7 | 0.00 | 0.00 | 0.00 | 86 | 1019.2 |
| 20260506102334 | 55 | 264 | 2.6 | 2.6 | 0.00 | 0.00 | 0.00 | 86 | 1019.2 |
| 20260506101831 | 55 | 201 | 1.7 | 3.5 | 0.00 | 0.00 | 0.00 | 85 | 1019.1 |
| 20260506101327 | 55 | 157 | 1.7 | 2.6 | 0.00 | 0.00 | 0.00 | 85 | 1019.2 |
| 20260506100825 | 55 | 147 | 0.0 | 2.6 | 0.00 | 0.00 | 0.00 | 85 | 1019.0 |
| 20260506100323 | 55 | 174 | 0.0 | 1.7 | 0.00 | 0.00 | 0.00 | 85 | 1019.4 |
| 20260506095822 | 55 | 217 | 1.7 | 3.5 | 0.00 | 0.00 | 0.00 | 85 | 1019.1 |
| 20260506095318 | 55 | 204 | 2.6 | 3.5 | 0.00 | 0.00 | 0.00 | 85 | 1019.4 |
| 20260506094815 | 55 | 166 | 0.9 | 1.7 | 0.00 | 0.00 | 0.00 | 84 | 1019.3 |
| 20260506094314 | 55 | 232 | 0.0 | 1.7 | 0.00 | 0.00 | 0.00 | 84 | 1019.2 |
| 20260506093812 | 55 | 181 | 0.0 | 1.7 | 0.00 | 0.00 | 0.00 | 85 | 1019.3 |
| 20260506093308 | 55 | 191 | 1.7 | 2.6 | 0.00 | 0.00 | 0.00 | 85 | 1019.1 |
| 20260506092806 | 55 | 162 | 0.9 | 1.7 | 0.00 | 0.00 | 0.00 | 85 | 1019.2 |
| 20260506092306 | 55 | 126 | 0.0 | 3.5 | 0.00 | 0.00 | 0.00 | 85 | 1019.3 |
| 20260506091801 | 55 | 201 | 1.7 | 2.6 | 0.00 | 0.00 | 0.00 | 85 | 1019.2 |
| 20260506091258 | 55 | 168 | 1.7 | 1.7 | 0.00 | 0.00 | 0.00 | 85 | 1019.3 |
| 20260506090756 | 55 | 196 | 1.7 | 1.7 | 0.00 | 0.00 | 0.00 | 85 | 1019.2 |
| 20260506090253 | 55 | 174 | 2.6 | 2.6 | 0.00 | 0.00 | 0.00 | 85 | 1019.1 |
| 20260506085749 | 55 | 167 | 1.7 | 1.7 | 0.00 | 0.00 | 0.00 | 85 | 1019.1 |
| 20260506085246 | 55 | 178 | 0.9 | 1.7 | 0.00 | 0.00 | 0.00 | 85 | 1019.2 |
| 20260506084742 | 55 | 143 | 1.7 | 2.6 | 0.00 | 0.00 | 0.00 | 85 | 1019.1 |
| 20260506084239 | 55 | 167 | 0.0 | 1.7 | 0.00 | 0.00 | 0.00 | 84 | 1019.2 |
| 20260506083736 | 55 | 198 | 0.0 | 1.7 | 0.00 | 0.00 | 0.00 | 84 | 1019.3 |
| 20260506083233 | 56 | 197 | 1.7 | 1.7 | 0.00 | 0.00 | 0.00 | 83 | 1019.5 |
| 20260506082731 | 56 | 149 | 0.0 | 0.9 | 0.00 | 0.00 | 0.00 | 83 | 1019.2 |
| 20260506082226 | 56 | 353 | 1.7 | 3.5 | 0.00 | 0.00 | 0.00 | 82 | 1019.3 |
| 20260506081724 | 56 | 0 | 2.6 | 6.1 | 0.00 | 0.00 | 0.00 | 82 | 1019.3 |
| 20260506081221 | 56 | 242 | 0.9 | 3.5 | 0.00 | 0.00 | 0.00 | 82 | 1019.3 |
| 20260506080719 | 56 | 214 | 0.0 | 1.7 | 0.00 | 0.00 | 0.00 | 82 | 1019.2 |
| 20260506080215 | 56 | 172 | 0.0 | 1.7 | 0.00 | 0.00 | 0.00 | 82 | 1019.2 |
| 20260506073159 | 56 | 296 | 0.0 | 2.6 | 0.00 | 0.00 | 0.00 | 82 | 1019.0 |
| 20260506072651 | 56 | 354 | 1.7 | 2.6 | 0.00 | 0.00 | 0.00 | 82 | 1018.9 |
| 20260506072149 | 56 | 327 | 2.6 | 2.6 | 0.00 | 0.00 | 0.00 | 82 | 1019.1 |
| 20260506071646 | 56 | 258 | 2.6 | 3.5 | 0.00 | 0.00 | 0.00 | 81 | 1018.9 |
| 20260506071143 | 56 | 265 | 0.0 | 3.5 | 0.00 | 0.00 | 0.00 | 81 | 1018.9 |
| 20260506070640 | 56 | 350 | 1.7 | 4.3 | 0.00 | 0.00 | 0.00 | 81 | 1018.7 |
| 20260506070137 | 56 | 196 | 1.7 | 3.5 | 0.00 | 0.00 | 0.00 | 81 | 1018.9 |
| 20260506062114 | 56 | 129 | 0.9 | 1.7 | 0.00 | 0.09 | 0.09 | 82 | 1018.4 |
| 20260506061610 | 56 | 135 | 0.9 | 1.7 | 0.00 | 0.09 | 0.09 | 82 | 1018.5 |
| 20260506061108 | 56 | 347 | 0.0 | 1.7 | 0.00 | 0.09 | 0.09 | 82 | 1018.4 |
| 20260506060607 | 56 | 170 | 3.5 | 3.5 | 0.00 | 0.09 | 0.09 | 81 | 1018.5 |
| 20260506051035 | 56 | 64 | 0.0 | 1.7 | 0.00 | 0.09 | 0.09 | 82 | 1018.2 |
| 20260506050532 | 57 | 235 | 1.7 | 2.6 | 0.00 | 0.09 | 0.09 | 83 | 1018.2 |
| 20260506045023 | 57 | 216 | 2.6 | 5.2 | 0.00 | 0.09 | 0.09 | 84 | 1018.2 |
| 20260506044521 | 57 | 230 | 3.5 | 7.0 | 0.00 | 0.09 | 0.09 | 84 | 1018.0 |
| 20260506044017 | 56 | 218 | 1.7 | 3.5 | 0.00 | 0.09 | 0.09 | 84 | 1018.1 |
| 20260506043515 | 56 | 130 | 0.0 | 1.7 | 0.00 | 0.09 | 0.09 | 83 | 1018.1 |
| 20260506043014 | 56 | 152 | 1.7 | 2.6 | 0.00 | 0.09 | 0.09 | 83 | 1018.0 |
| 20260506042512 | 56 | 180 | 1.7 | 2.6 | 0.00 | 0.09 | 0.09 | 82 | 1017.8 |
| 20260506042009 | 56 | 258 | 2.6 | 2.6 | 0.00 | 0.09 | 0.09 | 82 | 1017.7 |
| 20260506041509 | 57 | 122 | 1.7 | 4.3 | 0.00 | 0.09 | 0.09 | 81 | 1017.6 |
| 20260506041005 | 56 | 290 | 1.7 | 4.3 | 0.00 | 0.09 | 0.09 | 81 | 1017.8 |
| 20260506040503 | 56 | 213 | 0.9 | 3.5 | 0.00 | 0.09 | 0.09 | 82 | 1017.6 |
| 20260506035958 | 57 | 204 | 1.7 | 4.3 | 0.00 | 0.09 | 0.09 | 82 | 1017.5 |
| 20260506035455 | 57 | 230 | 1.7 | 2.6 | 0.00 | 0.09 | 0.09 | 82 | 1017.4 |
| 20260506034952 | 57 | 203 | 1.7 | 7.0 | 0.00 | 0.09 | 0.09 | 82 | 1017.4 |
| 20260506034449 | 57 | 220 | 5.2 | 8.7 | 0.00 | 0.09 | 0.09 | 82 | 1017.1 |
| 20260506033946 | 57 | 249 | 1.7 | 9.6 | 0.00 | 0.09 | 0.09 | 81 | 1017.0 |
| 20260506033444 | 57 | 205 | 1.7 | 6.1 | 0.00 | 0.09 | 0.09 | 81 | 1017.0 |
| 20260506032940 | 57 | 218 | 1.7 | 5.2 | 0.00 | 0.09 | 0.09 | 81 | 1017.0 |
| 20260506032438 | 57 | 263 | 4.3 | 7.8 | 0.00 | 0.09 | 0.09 | 81 | 1016.9 |
| 20260506031934 | 57 | 294 | 0.0 | 4.3 | 0.00 | 0.09 | 0.09 | 80 | 1016.8 |
| 20260506031431 | 57 | 292 | 3.5 | 7.8 | 0.00 | 0.09 | 0.09 | 81 | 1016.8 |
| 20260506030929 | 57 | 251 | 3.5 | 3.5 | 0.00 | 0.09 | 0.09 | 81 | 1016.8 |
| 20260506030427 | 57 | 323 | 3.5 | 4.3 | 0.00 | 0.09 | 0.09 | 80 | 1017.0 |
| 20260506025923 | 57 | 184 | 3.5 | 8.7 | 0.00 | 0.09 | 0.09 | 80 | 1016.7 |
| 20260506025421 | 57 | 236 | 7.8 | 8.7 | 0.00 | 0.09 | 0.09 | 81 | 1016.5 |
| 20260506024917 | 57 | 205 | 1.7 | 7.8 | 0.00 | 0.09 | 0.09 | 81 | 1016.7 |
| 20260506024414 | 57 | 219 | 4.3 | 9.6 | 0.00 | 0.09 | 0.09 | 82 | 1016.9 |
| 20260506023910 | 57 | 218 | 1.7 | 7.8 | 0.00 | 0.09 | 0.09 | 81 | 1016.5 |
| 20260506023407 | 57 | 146 | 4.3 | 7.0 | 0.00 | 0.09 | 0.09 | 80 | 1016.6 |
| 20260506022903 | 57 | 225 | 5.2 | 7.8 | 0.00 | 0.09 | 0.09 | 80 | 1016.5 |
| 20260506022401 | 57 | 213 | 7.0 | 11.3 | 0.00 | 0.09 | 0.09 | 80 | 1016.5 |
| 20260506021859 | 57 | 225 | 2.6 | 11.3 | 0.00 | 0.09 | 0.09 | 81 | 1016.6 |
| 20260506021356 | 57 | 235 | 7.0 | 13.0 | 0.00 | 0.09 | 0.09 | 81 | 1016.5 |
| 20260506020853 | 58 | 171 | 1.7 | 9.6 | 0.00 | 0.09 | 0.09 | 81 | 1016.4 |
| 20260506020351 | 58 | 204 | 4.3 | 11.3 | 0.00 | 0.09 | 0.09 | 80 | 1016.3 |
| 20260506015848 | 58 | 205 | 6.1 | 11.3 | 0.00 | 0.09 | 0.09 | 80 | 1016.2 |
| 20260506015345 | 58 | 268 | 6.1 | 13.9 | 0.00 | 0.09 | 0.09 | 79 | 1016.2 |
| 20260506014842 | 59 | 199 | 7.0 | 12.2 | 0.00 | 0.09 | 0.09 | 77 | 1016.2 |
| 20260506014339 | 59 | 234 | 4.3 | 10.4 | 0.00 | 0.09 | 0.09 | 75 | 1016.4 |
| 20260506013835 | 61 | 257 | 6.1 | 8.7 | 0.00 | 0.09 | 0.09 | 73 | 1015.9 |
| 20260506013333 | 60 | 283 | 3.5 | 7.0 | 0.00 | 0.09 | 0.09 | 74 | 1016.3 |
| 20260506012829 | 60 | 277 | 3.5 | 11.3 | 0.00 | 0.09 | 0.09 | 74 | 1016.4 |
| 20260506012326 | 61 | 257 | 6.1 | 7.8 | 0.00 | 0.09 | 0.09 | 71 | 1016.2 |
| 20260506011824 | 61 | 248 | 3.5 | 6.1 | 0.00 | 0.09 | 0.09 | 73 | 1016.2 |
| 20260506011320 | 60 | 227 | 1.7 | 9.6 | 0.00 | 0.09 | 0.09 | 75 | 1016.3 |
| 20260506010818 | 61 | 259 | 8.7 | 9.6 | 0.00 | 0.09 | 0.09 | 72 | 1016.4 |
| 20260506010315 | 61 | 214 | 4.3 | 6.1 | 0.00 | 0.09 | 0.09 | 72 | 1016.2 |
| 20260506005812 | 60 | 235 | 11.3 | 13.9 | 0.00 | 0.09 | 0.09 | 72 | 1016.2 |
| 20260506005309 | 62 | 222 | 8.7 | 10.4 | 0.00 | 0.09 | 0.09 | 70 | 1016.1 |
| 20260506004805 | 62 | 325 | 1.7 | 8.7 | 0.00 | 0.09 | 0.09 | 70 | 1016.0 |
| 20260506004303 | 61 | 184 | 2.6 | 9.6 | 0.00 | 0.09 | 0.09 | 71 | 1016.2 |
| 20260506003759 | 61 | 251 | 7.8 | 10.4 | 0.00 | 0.09 | 0.09 | 70 | 1016.1 |
| 20260506003256 | 60 | 309 | 4.3 | 12.2 | 0.00 | 0.09 | 0.09 | 72 | 1016.0 |
| 20260506002751 | 60 | 230 | 2.6 | 7.0 | 0.00 | 0.09 | 0.09 | 74 | 1016.1 |
| 20260506002248 | 60 | 237 | 5.2 | 7.8 | 0.00 | 0.09 | 0.09 | 72 | 1016.0 |
| 20260506001744 | 60 | 191 | 3.5 | 7.8 | 0.00 | 0.09 | 0.09 | 72 | 1015.8 |
| 20260506001241 | 60 | 230 | 7.0 | 12.2 | 0.00 | 0.09 | 0.09 | 72 | 1015.8 |
| 20260506000738 | 61 | 202 | 9.6 | 13.0 | 0.00 | 0.09 | 0.09 | 70 | 1015.8 |
| 20260506000236 | 60 | 227 | 7.0 | 9.6 | 0.00 | 0.09 | 0.09 | 71 | 1015.9 |
| 20260505235732 | 60 | 175 | 2.6 | 13.0 | 0.00 | 0.09 | 0.09 | 72 | 1015.8 |
| 20260505235230 | 60 | 257 | 3.5 | 10.4 | 0.00 | 0.09 | 0.09 | 71 | 1015.9 |
| 20260505234727 | 61 | 235 | 1.7 | 11.3 | 0.00 | 0.09 | 0.09 | 70 | 1015.8 |
| 20260505234224 | 61 | 311 | 1.7 | 13.9 | 0.00 | 0.09 | 0.09 | 70 | 1015.9 |
| 20260505233721 | 61 | 247 | 4.3 | 9.6 | 0.00 | 0.09 | 0.09 | 71 | 1016.0 |
| 20260505233219 | 61 | 200 | 4.3 | 6.1 | 0.00 | 0.09 | 0.09 | 71 | 1015.9 |
| 20260505232716 | 61 | 254 | 1.7 | 7.0 | 0.00 | 0.09 | 0.09 | 70 | 1015.8 |
| 20260505232213 | 61 | 29 | 1.7 | 9.6 | 0.00 | 0.09 | 0.09 | 70 | 1015.9 |
| 20260505231710 | 61 | 198 | 5.2 | 11.3 | 0.00 | 0.09 | 0.09 | 69 | 1016.0 |
| 20260505231209 | 62 | 239 | 8.7 | 15.6 | 0.00 | 0.09 | 0.09 | 68 | 1015.9 |
| 20260505230706 | 62 | 264 | 7.8 | 11.3 | 0.00 | 0.09 | 0.09 | 69 | 1015.6 |
| 20260505230203 | 61 | 223 | 5.2 | 14.8 | 0.00 | 0.09 | 0.09 | 70 | 1015.8 |
| 20260505225659 | 61 | 228 | 5.2 | 13.0 | 0.00 | 0.09 | 0.09 | 70 | 1015.6 |
| 20260505225156 | 61 | 203 | 5.2 | 15.6 | 0.00 | 0.09 | 0.09 | 70 | 1015.8 |
| 20260505224651 | 62 | 233 | 5.2 | 6.1 | 0.00 | 0.09 | 0.09 | 69 | 1015.9 |
| 20260505224150 | 62 | 315 | 3.5 | 7.8 | 0.00 | 0.09 | 0.09 | 70 | 1015.8 |
| 20260505223647 | 62 | 279 | 3.5 | 8.7 | 0.00 | 0.09 | 0.09 | 68 | 1016.0 |
| 20260505223142 | 61 | 295 | 3.5 | 10.4 | 0.00 | 0.09 | 0.09 | 70 | 1016.0 |
| 20260505222638 | 62 | 261 | 7.8 | 9.6 | 0.00 | 0.09 | 0.09 | 68 | 1016.2 |
| 20260505222135 | 62 | 238 | 7.0 | 11.3 | 0.00 | 0.09 | 0.09 | 68 | 1016.0 |
| 20260505221631 | 62 | 299 | 10.4 | 13.0 | 0.00 | 0.09 | 0.09 | 68 | 1016.0 |
| 20260505221128 | 62 | 319 | 3.5 | 11.3 | 0.00 | 0.09 | 0.09 | 68 | 1016.0 |
| 20260505220626 | 62 | 229 | 8.7 | 10.4 | 0.00 | 0.09 | 0.09 | 68 | 1016.0 |
| 20260505220123 | 63 | 318 | 3.5 | 7.0 | 0.00 | 0.09 | 0.09 | 68 | 1016.1 |
| 20260505215621 | 62 | 259 | 4.3 | 11.3 | 0.00 | 0.09 | 0.09 | 68 | 1016.1 |
| 20260505215119 | 62 | 212 | 9.6 | 13.9 | 0.00 | 0.09 | 0.09 | 69 | 1016.2 |
| 20260505214617 | 62 | 229 | 5.2 | 8.7 | 0.00 | 0.09 | 0.09 | 69 | 1016.2 |
| 20260505214114 | 62 | 239 | 5.2 | 13.0 | 0.00 | 0.09 | 0.09 | 68 | 1016.4 |
| 20260505213612 | 62 | 281 | 1.7 | 9.6 | 0.00 | 0.09 | 0.09 | 69 | 1016.3 |
| 20260505213108 | 62 | 252 | 8.7 | 11.3 | 0.00 | 0.09 | 0.09 | 68 | 1016.3 |
| 20260505212604 | 61 | 232 | 6.1 | 11.3 | 0.00 | 0.09 | 0.09 | 70 | 1016.2 |
| 20260505212102 | 62 | 224 | 4.3 | 12.2 | 0.00 | 0.09 | 0.09 | 68 | 1016.2 |
| 20260505211558 | 62 | 278 | 1.7 | 9.6 | 0.00 | 0.09 | 0.09 | 67 | 1016.4 |
| 20260505211055 | 62 | 302 | 5.2 | 7.8 | 0.00 | 0.09 | 0.09 | 67 | 1016.4 |
| 20260505210551 | 62 | 257 | 6.1 | 9.6 | 0.00 | 0.09 | 0.09 | 67 | 1016.5 |
| 20260505210049 | 62 | 278 | 5.2 | 8.7 | 0.00 | 0.09 | 0.09 | 66 | 1016.2 |
| 20260505205546 | 62 | 273 | 7.0 | 13.0 | 0.00 | 0.09 | 0.09 | 67 | 1016.4 |
| 20260505205044 | 63 | 268 | 5.2 | 11.3 | 0.00 | 0.09 | 0.09 | 67 | 1016.4 |
| 20260505204541 | 62 | 261 | 7.8 | 13.0 | 0.00 | 0.09 | 0.09 | 66 | 1016.6 |
| 20260505204038 | 62 | 308 | 6.1 | 9.6 | 0.00 | 0.09 | 0.09 | 67 | 1016.4 |
| 20260505203529 | 61 | 229 | 7.0 | 10.4 | 0.00 | 0.09 | 0.09 | 68 | 1016.2 |
| 20260505203027 | 61 | 272 | 3.5 | 10.4 | 0.00 | 0.09 | 0.09 | 67 | 1016.5 |
| 20260505202523 | 62 | 311 | 8.7 | 9.6 | 0.00 | 0.09 | 0.09 | 65 | 1016.5 |
| 20260505202019 | 61 | 316 | 4.3 | 9.6 | 0.00 | 0.09 | 0.09 | 67 | 1016.5 |
| 20260505201516 | 62 | 215 | 3.5 | 10.4 | 0.00 | 0.09 | 0.09 | 67 | 1016.4 |
| 20260505201013 | 62 | 276 | 7.8 | 11.3 | 0.00 | 0.09 | 0.09 | 66 | 1016.4 |
| 20260505200511 | 62 | 230 | 7.8 | 11.3 | 0.00 | 0.09 | 0.09 | 67 | 1016.4 |
| 20260505200008 | 61 | 255 | 7.0 | 12.2 | 0.00 | 0.09 | 0.09 | 68 | 1016.4 |
| 20260505195503 | 61 | 296 | 0.9 | 11.3 | 0.00 | 0.09 | 0.09 | 69 | 1016.2 |
| 20260505195000 | 62 | 291 | 7.8 | 8.7 | 0.00 | 0.09 | 0.09 | 68 | 1016.3 |
| 20260505194458 | 62 | 238 | 6.1 | 8.7 | 0.00 | 0.09 | 0.09 | 68 | 1016.5 |
| 20260505193958 | 62 | 354 | 3.5 | 9.6 | 0.00 | 0.09 | 0.09 | 67 | 1016.7 |
| 20260505193456 | 61 | 242 | 1.7 | 7.8 | 0.00 | 0.09 | 0.09 | 68 | 1016.6 |
| 20260505192953 | 61 | 263 | 9.6 | 13.0 | 0.00 | 0.09 | 0.09 | 68 | 1016.5 |
| 20260505192451 | 60 | 319 | 3.5 | 12.2 | 0.00 | 0.09 | 0.09 | 72 | 1016.6 |
| 20260505191948 | 61 | 258 | 3.5 | 7.8 | 0.00 | 0.09 | 0.09 | 69 | 1016.5 |
| 20260505191447 | 61 | 285 | 4.3 | 11.3 | 0.00 | 0.09 | 0.09 | 70 | 1016.6 |
| 20260505190943 | 61 | 290 | 7.0 | 8.7 | 0.00 | 0.09 | 0.09 | 71 | 1016.5 |
| 20260505190438 | 60 | 256 | 2.6 | 10.4 | 0.00 | 0.09 | 0.09 | 72 | 1016.4 |
| 20260505185934 | 60 | 258 | 11.3 | 11.3 | 0.00 | 0.09 | 0.09 | 72 | 1016.3 |
| 20260505185432 | 60 | 342 | 3.5 | 12.2 | 0.00 | 0.09 | 0.09 | 72 | 1016.4 |
| 20260505184928 | 60 | 350 | 6.1 | 7.0 | 0.00 | 0.09 | 0.09 | 74 | 1016.4 |
| 20260505184425 | 60 | 234 | 3.5 | 6.1 | 0.00 | 0.09 | 0.09 | 73 | 1016.4 |
| 20260505183922 | 60 | 198 | 3.5 | 7.0 | 0.00 | 0.09 | 0.09 | 75 | 1016.4 |
| 20260505183419 | 61 | 296 | 6.1 | 7.8 | 0.00 | 0.09 | 0.09 | 74 | 1016.5 |
| 20260505182915 | 60 | 345 | 2.6 | 9.6 | 0.00 | 0.09 | 0.09 | 75 | 1016.5 |
| 20260505182412 | 60 | 333 | 1.7 | 8.7 | 0.00 | 0.09 | 0.09 | 76 | 1016.6 |
| 20260505181908 | 60 | 348 | 2.6 | 7.0 | 0.00 | 0.09 | 0.09 | 76 | 1016.4 |
| 20260505181406 | 60 | 45 | 0.0 | 2.6 | 0.00 | 0.09 | 0.09 | 77 | 1016.3 |
| 20260505180902 | 59 | 277 | 2.6 | 5.2 | 0.00 | 0.09 | 0.09 | 78 | 1016.3 |
| 20260505180354 | 59 | 132 | 0.0 | 3.5 | 0.00 | 0.09 | 0.09 | 79 | 1016.1 |
| 20260505175850 | 59 | 296 | 1.7 | 4.3 | 0.00 | 0.09 | 0.09 | 80 | 1016.3 |
| 20260505175347 | 58 | 103 | 0.0 | 2.6 | 0.00 | 0.09 | 0.09 | 81 | 1016.3 |
| 20260505174843 | 58 | 208 | 1.7 | 8.7 | 0.00 | 0.09 | 0.09 | 80 | 1016.2 |
| 20260505174341 | 58 | 224 | 0.0 | 6.1 | 0.00 | 0.09 | 0.09 | 81 | 1016.1 |
| 20260505173837 | 57 | 131 | 1.7 | 7.8 | 0.00 | 0.09 | 0.09 | 81 | 1015.9 |
| 20260505173333 | 57 | 284 | 1.7 | 5.2 | 0.00 | 0.09 | 0.09 | 81 | 1016.0 |
| 20260505172830 | 57 | 299 | 0.0 | 4.3 | 0.00 | 0.09 | 0.09 | 82 | 1016.1 |
| 20260505172328 | 57 | 9 | 1.7 | 3.5 | 0.00 | 0.09 | 0.09 | 83 | 1016.1 |
| 20260505171827 | 57 | 302 | 1.7 | 4.3 | 0.00 | 0.09 | 0.09 | 83 | 1016.0 |
| 20260505171324 | 57 | 356 | 7.0 | 7.8 | 0.00 | 0.09 | 0.09 | 83 | 1016.2 |
| 20260505170821 | 57 | 56 | 2.6 | 5.2 | 0.00 | 0.09 | 0.09 | 84 | 1015.8 |
| 20260505170318 | 57 | 69 | 0.9 | 4.3 | 0.00 | 0.09 | 0.09 | 85 | 1016.1 |
| 20260505165813 | 57 | 265 | 5.2 | 6.1 | 0.00 | 0.09 | 0.09 | 85 | 1016.0 |
| 20260505165309 | 56 | 276 | 3.5 | 5.2 | 0.00 | 0.09 | 0.09 | 85 | 1015.9 |
| 20260505164804 | 56 | 269 | 4.3 | 7.0 | 0.00 | 0.09 | 0.09 | 86 | 1016.2 |
| 20260505164302 | 56 | 257 | 1.7 | 6.1 | 0.00 | 0.09 | 0.09 | 86 | 1015.9 |
| 20260505163800 | 56 | 246 | 4.3 | 8.7 | 0.00 | 0.09 | 0.09 | 87 | 1016.0 |
| 20260505163258 | 56 | 221 | 3.5 | 7.0 | 0.00 | 0.09 | 0.09 | 87 | 1016.1 |
| 20260505162756 | 56 | 236 | 1.7 | 3.5 | 0.00 | 0.09 | 0.09 | 88 | 1016.0 |
| 20260505162252 | 56 | 42 | 0.0 | 3.5 | 0.00 | 0.09 | 0.09 | 88 | 1015.8 |
| 20260505161749 | 56 | 287 | 1.7 | 3.5 | 0.00 | 0.09 | 0.09 | 87 | 1016.0 |
| 20260505161247 | 55 | 181 | 1.7 | 2.6 | 0.00 | 0.09 | 0.09 | 88 | 1016.0 |
| 20260505160744 | 55 | 230 | 0.0 | 2.6 | 0.00 | 0.09 | 0.09 | 88 | 1015.8 |
| 20260505160242 | 55 | 337 | 3.5 | 3.5 | 0.00 | 0.09 | 0.09 | 88 | 1015.8 |
| 20260505153221 | 54 | 183 | 3.5 | 5.2 | 0.00 | 0.09 | 0.09 | 89 | 1015.7 |
| 20260505152718 | 55 | 293 | 5.2 | 5.2 | 0.00 | 0.09 | 0.09 | 89 | 1015.5 |
| 20260505152214 | 55 | 329 | 1.7 | 5.2 | 0.00 | 0.09 | 0.09 | 88 | 1015.6 |
| 20260505151709 | 55 | 212 | 3.5 | 3.5 | 0.00 | 0.09 | 0.09 | 88 | 1015.5 |
| 20260505151207 | 55 | 135 | 0.0 | 2.6 | 0.00 | 0.09 | 0.09 | 88 | 1015.3 |
| 20260505150702 | 55 | 205 | 2.6 | 7.0 | 0.00 | 0.09 | 0.09 | 88 | 1015.2 |
| 20260505150200 | 55 | 240 | 5.2 | 7.0 | 0.00 | 0.09 | 0.09 | 87 | 1015.3 |
| 20260505140633 | 54 | 169 | 1.7 | 2.6 | 0.00 | 0.09 | 0.09 | 88 | 1015.0 |
| 20260505140130 | 54 | 212 | 1.7 | 7.0 | 0.00 | 0.09 | 0.09 | 87 | 1015.2 |
| 20260505124544 | 54 | 163 | 2.6 | 4.3 | 0.00 | 0.09 | 0.09 | 84 | 1014.8 |
| 20260505124040 | 54 | 164 | 7.8 | 8.7 | 0.00 | 0.09 | 0.09 | 84 | 1014.7 |
| 20260505123537 | 54 | 134 | 3.5 | 6.1 | 0.00 | 0.09 | 0.09 | 84 | 1014.9 |
| 20260505123033 | 54 | 196 | 1.7 | 9.6 | 0.00 | 0.09 | 0.09 | 84 | 1014.8 |
| 20260505122530 | 54 | 219 | 7.0 | 8.7 | 0.00 | 0.09 | 0.09 | 84 | 1014.6 |
| 20260505122027 | 54 | 234 | 11.3 | 12.2 | 0.00 | 0.09 | 0.09 | 84 | 1014.7 |
| 20260505121523 | 54 | 221 | 4.3 | 8.7 | 0.00 | 0.09 | 0.09 | 83 | 1014.7 |
| 20260505121020 | 54 | 217 | 5.2 | 8.7 | 0.00 | 0.09 | 0.09 | 83 | 1014.5 |
| 20260505120516 | 54 | 190 | 1.7 | 5.2 | 0.00 | 0.09 | 0.09 | 83 | 1014.6 |
| 20260505120012 | 54 | 163 | 2.6 | 3.5 | 0.00 | 0.09 | 0.09 | 83 | 1014.6 |
| 20260505115507 | 54 | 159 | 4.3 | 4.3 | 0.00 | 0.09 | 0.09 | 82 | 1014.5 |
| 20260505115005 | 53 | 139 | 2.6 | 2.6 | 0.00 | 0.09 | 0.09 | 82 | 1014.6 |
| 20260505114502 | 53 | 240 | 3.5 | 3.5 | 0.00 | 0.09 | 0.09 | 82 | 1014.7 |
| 20260505113958 | 54 | 175 | 2.6 | 5.2 | 0.00 | 0.09 | 0.09 | 81 | 1014.7 |
| 20260505113455 | 54 | 202 | 1.7 | 4.3 | 0.00 | 0.09 | 0.09 | 81 | 1015.1 |
| 20260505112950 | 54 | 231 | 3.5 | 9.6 | 0.00 | 0.09 | 0.09 | 80 | 1014.9 |
| 20260505112448 | 54 | 228 | 3.5 | 7.8 | 0.00 | 0.09 | 0.09 | 79 | 1014.8 |
| 20260505111944 | 54 | 188 | 3.5 | 8.7 | 0.00 | 0.09 | 0.09 | 78 | 1015.0 |
| 20260505111438 | 54 | 194 | 2.6 | 7.8 | 0.00 | 0.09 | 0.09 | 77 | 1015.0 |
| 20260505110935 | 53 | 220 | 3.5 | 10.4 | 0.00 | 0.09 | 0.09 | 78 | 1014.7 |
| 20260505110432 | 53 | 224 | 7.8 | 8.7 | 0.00 | 0.09 | 0.09 | 80 | 1014.8 |